Wetterdaten: aktuell Sonntag, 06.09.2026 10:54
Datum Zeit Temp. A. Feuchte A. Luftdruck Regen Wind Richtung Richtung Taupunkt Windchill
06.09.2026 10:54 19,8 °C 42 % 1020,2 hPa 0,0 l/m² 4,7 km/h (1 Bft) SO±22.5° 145 ° 6,5 °C 19,8 °C
06.09.2026 10:52 19,7 °C 41 % 1020,2 hPa 0,0 l/m² 4,8 km/h (1 Bft) O-NO±67.5° 65 ° 6,1 °C 19,7 °C
06.09.2026 10:50 19,7 °C 41 % 1020,2 hPa 0,0 l/m² 4,8 km/h (1 Bft) O-NO±67.5° 65 ° 6,1 °C 19,7 °C
06.09.2026 10:49 19,6 °C 42 % 1020,2 hPa 0,0 l/m² 2,8 km/h (1 Bft) N 360 ° 6,3 °C 19,6 °C
06.09.2026 10:47 19,6 °C 42 % 1020,2 hPa 0,0 l/m² 1,2 km/h (1 Bft) N 360 ° 6,3 °C 19,6 °C
06.09.2026 10:45 19,6 °C 42 % 1020,2 hPa 0,0 l/m² 1,2 km/h (1 Bft) N 360 ° 6,3 °C 19,6 °C
06.09.2026 10:43 19,4 °C 42 % 1020,2 hPa 0,0 l/m² 0,9 km/h (0 Bft) N±22.5° 5 ° 6,2 °C 19,4 °C
06.09.2026 10:41 19,5 °C 42 % 1020,2 hPa 0,0 l/m² 0,9 km/h (0 Bft) N±22.5° 360 ° 6,2 °C 19,5 °C
06.09.2026 10:39 19,5 °C 42 % 1020,2 hPa 0,0 l/m² 0,9 km/h (0 Bft) N 360 ° 6,2 °C 19,5 °C
06.09.2026 10:37 19,3 °C 43 % 1020,2 hPa 0,0 l/m² 0,9 km/h (0 Bft) N 360 ° 6,4 °C 19,3 °C
06.09.2026 10:35 19,2 °C 43 % 1020,2 hPa 0,0 l/m² 0,5 km/h (0 Bft) N 5 ° 6,3 °C 19,2 °C
06.09.2026 10:33 19,2 °C 43 % 1020,2 hPa 0,0 l/m² 4,5 km/h (1 Bft) N 10 ° 6,3 °C 19,2 °C
06.09.2026 10:31 19,1 °C 45 % 1020,2 hPa 0,0 l/m² 0,1 km/h (0 Bft) SO 125 ° 6,9 °C 19,1 °C
06.09.2026 10:29 18,8 °C 45 % 1020,2 hPa 0,0 l/m² 0,1 km/h (0 Bft) SO 125 ° 6,6 °C 18,8 °C
06.09.2026 10:27 18,8 °C 45 % 1020,2 hPa 0,0 l/m² 2,8 km/h (1 Bft) O-SO±45° 110 ° 6,6 °C 18,8 °C
06.09.2026 10:24 18,8 °C 45 % 1020,2 hPa 0,0 l/m² 0,0 km/h (0 Bft) N-NO 30 ° 6,6 °C 18,8 °C
06.09.2026 10:22 18,8 °C 45 % 1020,2 hPa 0,0 l/m² 0,0 km/h (0 Bft) N-NO 30 ° 6,6 °C 18,8 °C
06.09.2026 10:20 18,8 °C 45 % 1020,2 hPa 0,0 l/m² 0,1 km/h (0 Bft) N-NO 30 ° 6,6 °C 18,8 °C
06.09.2026 10:18 18,6 °C 46 % 1020,2 hPa 0,0 l/m² 0,1 km/h (0 Bft) N-NO 30 ° 6,8 °C 18,6 °C
06.09.2026 10:16 18,5 °C 46 % 1020,2 hPa 0,0 l/m² 0,5 km/h (0 Bft) O-NO±45° 60 ° 6,7 °C 18,5 °C
06.09.2026 10:14 18,5 °C 46 % 1020,2 hPa 0,0 l/m² 0,5 km/h (0 Bft) O-NO±45° 60 ° 6,7 °C 18,5 °C
06.09.2026 10:12 18,5 °C 47 % 1020,2 hPa 0,0 l/m² 0,0 km/h (0 Bft) O 100 ° 7,0 °C 18,5 °C
06.09.2026 10:11 18,4 °C 47 % 1020,2 hPa 0,0 l/m² 0,0 km/h (0 Bft) O 100 ° 6,9 °C 18,4 °C
06.09.2026 10:09 18,5 °C 47 % 1020,2 hPa 0,0 l/m² 0,7 km/h (0 Bft) O-SO±22.5° 105 ° 7,0 °C 18,5 °C
06.09.2026 10:07 18,5 °C 47 % 1021,2 hPa 0,0 l/m² 0,7 km/h (0 Bft) O-SO±22.5° 105 ° 7,0 °C 18,5 °C
06.09.2026 10:05 18,3 °C 50 % 1021,2 hPa 0,0 l/m² 0,0 km/h (0 Bft) SO 140 ° 7,7 °C 18,3 °C
06.09.2026 10:03 18,0 °C 53 % 1021,3 hPa 0,0 l/m² 0,4 km/h (0 Bft) SO 140 ° 8,3 °C 18,0 °C
06.09.2026 10:01 18,0 °C 53 % 1021,3 hPa 0,0 l/m² 0,4 km/h (0 Bft) SO 140 ° 8,3 °C 18,0 °C
06.09.2026 09:59 17,8 °C 55 % 1021,3 hPa 0,0 l/m² 0,0 km/h (0 Bft) SO 140 ° 8,6 °C 17,8 °C
06.09.2026 09:57 17,6 °C 55 % 1020,3 hPa 0,0 l/m² 4,5 km/h (1 Bft) SO 145 ° 8,5 °C 17,6 °C
06.09.2026 09:55 17,6 °C 55 % 1020,3 hPa 0,0 l/m² 1,8 km/h (1 Bft) SO 145 ° 8,5 °C 17,6 °C
06.09.2026 09:53 17,4 °C 56 % 1020,3 hPa 0,0 l/m² 1,8 km/h (1 Bft) SO 145 ° 8,5 °C 17,4 °C
06.09.2026 09:51 17,2 °C 55 % 1020,3 hPa 0,0 l/m² 5,6 km/h (1 Bft) SO±22.5° 145 ° 8,1 °C 17,2 °C
06.09.2026 09:49 17,2 °C 55 % 1020,3 hPa 0,0 l/m² 3,0 km/h (1 Bft) O±22.5° 95 ° 8,1 °C 17,2 °C
06.09.2026 09:47 16,9 °C 55 % 1020,3 hPa 0,0 l/m² 3,0 km/h (1 Bft) O±22.5° 95 ° 7,8 °C 16,9 °C
06.09.2026 09:44 16,7 °C 54 % 1020,3 hPa 0,0 l/m² 1,4 km/h (1 Bft) N-NO±45° 30 ° 7,3 °C 16,7 °C
06.09.2026 09:42 16,7 °C 54 % 1020,3 hPa 0,0 l/m² 1,3 km/h (1 Bft) N 360 ° 7,3 °C 16,7 °C
06.09.2026 09:40 16,7 °C 55 % 1020,3 hPa 0,0 l/m² 0,0 km/h (0 Bft) N 360 ° 7,6 °C 16,7 °C
06.09.2026 09:38 16,6 °C 56 % 1020,3 hPa 0,0 l/m² 0,0 km/h (0 Bft) N 360 ° 7,8 °C 16,6 °C
06.09.2026 09:36 16,6 °C 56 % 1020,3 hPa 0,0 l/m² 0,0 km/h (0 Bft) N 360 ° 7,8 °C 16,6 °C
06.09.2026 09:34 16,5 °C 61 % 1020,3 hPa 0,0 l/m² 0,0 km/h (0 Bft) N 360 ° 9,0 °C 16,5 °C
_ Min-Zeit 07:43 10:50 00:00 - 00:00 - - 00:08 07:43
Minimum _ 12,5 °C 41 % 1018,2 hPa - 0,0 km/h (0 Bft) - - 5,8 °C 12,5 °C
_ Max-Zeit 10:54 07:45 08:14 00:00 09:51 - - 09:34 10:54
Maximum _ 19,8 °C 75 % 1021,5 hPa 0,0 l/m² 5,6 km/h
SO (1 Bft)
- - 9,0 °C 19,8 °C
Durchschnitt _ 15,2 °C 60 % 1020,0 hPa #0,0 l/m² 0,3 km/h (0 Bft) NW - 7,2 °C 15,2 °C